Time;durP1;ratioP1;P1;durP2;ratioP2;P2;SDS_P1;SDS_P2;PMS_P1;PMS_P2;Temp;Humidity;BMP_temperature;BMP_pressure;BME280_temperature;BME280_humidity;BME280_pressure;Samples;Min_cycle;Max_cycle;Signal;HPM_P1;HPM_P2
2022/01/15 00:02:04;;;;;;;8.27;1.45;;;;;;;1.56;69.35;101623.88;5057893;28;20086;-55
2022/01/15 00:04:31;;;;;;;9.13;1.48;;;;;;;1.55;69.61;101607.69;5062305;28;20051;-55
2022/01/15 00:06:58;;;;;;;4.80;1.10;;;;;;;1.54;69.87;101612.72;5055037;28;20056;-56
2022/01/15 00:09:25;;;;;;;6.18;1.40;;;;;;;1.51;70.13;101616.03;5057478;28;20063;-55
2022/01/15 00:11:53;;;;;;;8.90;1.67;;;;;;;1.52;70.08;101614.34;5057861;28;20063;-56
2022/01/15 00:14:26;;;;;;;6.28;1.60;;;;;;;1.51;70.10;101615.16;5060498;28;20252;-54
2022/01/15 00:17:04;;;;;;;9.15;2.20;;;;;;;1.50;69.86;101614.28;5061954;28;20045;-55
2022/01/15 00:19:41;;;;;;;6.78;1.45;;;;;;;1.45;70.25;101612.34;5059211;28;20044;-54
2022/01/15 00:22:10;;;;;;;5.97;1.52;;;;;;;1.43;70.41;101606.28;5059249;28;20052;-53
2022/01/15 00:24:37;;;;;;;5.35;1.05;;;;;;;1.40;70.33;101606.16;5057101;28;20052;-55
2022/01/15 00:27:05;;;;;;;7.07;1.77;;;;;;;1.40;70.50;101606.16;5057618;28;20049;-55
2022/01/15 00:29:33;;;;;;;8.40;1.90;;;;;;;1.38;70.44;101601.00;5057877;28;20156;-56
2022/01/15 00:32:00;;;;;;;4.93;1.30;;;;;;;1.36;70.83;101601.75;5058429;28;20056;-53
2022/01/15 00:34:28;;;;;;;7.28;1.73;;;;;;;1.35;70.87;101602.53;5058669;28;20504;-56
2022/01/15 00:36:57;;;;;;;5.90;1.63;;;;;;;1.33;70.91;101605.03;5059064;28;20053;-53
2022/01/15 00:39:25;;;;;;;5.00;1.42;;;;;;;1.31;71.29;101598.13;5055194;28;20080;-54
2022/01/15 00:41:53;;;;;;;8.38;1.75;;;;;;;1.30;71.45;101599.78;5058814;28;20067;-54
2022/01/15 00:44:20;;;;;;;4.75;1.17;;;;;;;1.30;71.53;101601.47;5057607;28;20075;-54
2022/01/15 00:46:47;;;;;;;9.30;2.28;;;;;;;1.31;71.53;101600.66;5058225;28;20053;-54
2022/01/15 00:49:14;;;;;;;15.30;3.35;;;;;;;1.27;71.50;101600.53;5058504;28;20040;-56
2022/01/15 00:51:41;;;;;;;8.07;2.92;;;;;;;1.25;71.71;101611.50;5063473;28;20131;-54
2022/01/15 00:54:10;;;;;;;10.00;3.15;;;;;;;1.24;71.90;101614.84;5061518;28;20083;-52
2022/01/15 00:56:38;;;;;;;7.47;2.80;;;;;;;1.24;71.66;101619.97;5059291;28;20421;-55
2022/01/15 00:59:05;;;;;;;4.47;1.40;;;;;;;1.22;71.72;101624.13;5058612;28;20040;-54
2022/01/15 01:01:32;;;;;;;6.13;1.50;;;;;;;1.22;71.69;101626.69;5058485;28;20048;-55
2022/01/15 01:03:59;;;;;;;7.00;2.88;;;;;;;1.19;72.03;101626.56;5057722;28;20074;-54
2022/01/15 01:06:27;;;;;;;4.50;1.50;;;;;;;1.18;71.99;101624.81;5057870;28;20053;-52
2022/01/15 01:08:54;;;;;;;11.85;2.25;;;;;;;1.16;72.09;101622.19;5058193;28;20040;-55
2022/01/15 01:11:31;;;;;;;7.00;2.10;;;;;;;1.13;71.92;101627.16;5057239;28;20143;-53
2022/01/15 01:24:55;;;;;;;7.15;2.13;;;;;;;1.04;73.00;101614.00;5067421;28;20061;-55
2022/01/15 01:27:28;;;;;;;5.18;1.60;;;;;;;1.00;72.92;101617.19;5060064;28;20048;-53
2022/01/15 01:30:10;;;;;;;9.23;3.10;;;;;;;1.00;73.14;101619.75;5060583;28;20049;-55
2022/01/15 01:32:46;;;;;;;7.80;2.00;;;;;;;0.97;73.20;101608.53;5065018;28;20068;-55
2022/01/15 01:35:17;;;;;;;11.70;2.78;;;;;;;0.93;73.43;101607.53;5060050;28;20044;-55
2022/01/15 01:37:48;;;;;;;4.35;1.33;;;;;;;0.90;73.63;101602.28;5058160;28;20048;-55
2022/01/15 01:40:23;;;;;;;3.78;1.33;;;;;;;0.88;74.02;101607.31;5057679;28;20044;-54
2022/01/15 01:43:02;;;;;;;5.57;1.40;;;;;;;0.87;74.01;101602.16;5057780;28;20110;-55
2022/01/15 01:45:29;;;;;;;4.93;1.23;;;;;;;0.86;74.13;101606.38;5059950;28;20049;-55
2022/01/15 01:47:56;;;;;;;7.05;1.25;;;;;;;0.85;74.07;101598.66;5057780;28;20052;-55
2022/01/15 01:50:25;;;;;;;7.28;1.60;;;;;;;0.83;74.51;101602.81;5058086;28;20052;-53
2022/01/15 01:52:56;;;;;;;8.00;1.60;;;;;;;0.80;74.72;101598.44;5064549;28;20050;-54
2022/01/15 01:55:25;;;;;;;4.55;1.05;;;;;;;0.79;74.73;101603.47;5060406;28;20734;-56
2022/01/15 01:57:56;;;;;;;5.28;1.40;;;;;;;0.77;75.08;101594.88;5057180;28;20079;-54
2022/01/15 02:00:25;;;;;;;6.05;1.23;;;;;;;0.75;75.00;101593.94;5058187;28;20048;-52
2022/01/15 02:02:53;;;;;;;9.70;1.55;;;;;;;0.74;74.99;101584.53;5059478;28;20477;-53
2022/01/15 02:05:21;;;;;;;5.55;0.98;;;;;;;0.73;74.88;101590.44;5059080;28;20048;-55
2022/01/15 02:07:49;;;;;;;8.25;1.70;;;;;;;0.72;75.26;101586.16;5062069;28;20060;-56
2022/01/15 02:10:18;;;;;;;4.53;1.30;;;;;;;0.68;75.37;101585.13;5057752;28;20082;-55
2022/01/15 02:12:48;;;;;;;9.13;1.63;;;;;;;0.66;75.69;101583.31;5064354;28;20053;-53
2022/01/15 02:15:18;;;;;;;6.72;1.20;;;;;;;0.63;75.94;101582.38;5064767;28;20131;-57
2022/01/15 02:17:47;;;;;;;6.07;1.88;;;;;;;0.62;75.76;101583.19;5060297;28;20540;-55
2022/01/15 02:20:36;;;;;;;10.07;1.17;;;;;;;0.61;76.15;101573.78;5056134;28;20501;-55
2022/01/15 02:25:53;;;;;;;5.15;1.35;;;;;;;0.60;76.01;101589.91;5061961;28;20122;-54
2022/01/15 02:28:22;;;;;;;9.82;1.92;;;;;;;0.59;76.32;101585.59;5061191;28;20406;-55
2022/01/15 02:30:53;;;;;;;7.82;1.33;;;;;;;0.58;76.04;101588.97;5057963;28;20044;-55
2022/01/15 02:33:21;;;;;;;13.80;2.08;;;;;;;0.59;76.10;101600.91;5056013;28;20048;-56
2022/01/15 02:35:50;;;;;;;9.48;1.60;;;;;;;0.57;76.43;101599.97;5061050;28;20063;-54
2022/01/15 02:38:17;;;;;;;6.93;1.58;;;;;;;0.57;76.18;101596.53;5062452;28;20056;-56
2022/01/15 02:40:45;;;;;;;8.68;1.65;;;;;;;0.56;76.56;101595.66;5063532;28;20470;-57
2022/01/15 02:43:18;;;;;;;3.92;0.93;;;;;;;0.57;76.40;101601.66;5063981;28;20474;-53
2022/01/15 02:45:54;;;;;;;7.00;1.23;;;;;;;0.55;76.60;101593.94;5059014;28;20102;-56
2022/01/15 02:48:23;;;;;;;6.28;1.67;;;;;;;0.54;76.50;101602.38;5060864;28;20195;-55
2022/01/15 02:50:52;;;;;;;5.88;1.40;;;;;;;0.54;76.50;101601.50;5061392;28;20048;-55
2022/01/15 02:53:20;;;;;;;7.40;1.13;;;;;;;0.54;76.71;101606.63;5057645;28;21879;-56
2022/01/15 02:55:49;;;;;;;9.10;1.38;;;;;;;0.53;76.71;101600.63;5055778;28;20063;-56
2022/01/15 02:58:18;;;;;;;11.70;1.40;;;;;;;0.51;76.68;101597.09;5057638;28;20052;-55
2022/01/15 03:00:46;;;;;;;5.57;2.20;;;;;;;0.51;77.08;101598.78;5059605;28;20056;-54
2022/01/15 03:03:14;;;;;;;5.85;1.17;;;;;;;0.51;77.19;101601.34;5058138;28;20056;-54
2022/01/15 03:05:41;;;;;;;9.07;1.58;;;;;;;0.49;76.81;101598.72;5057676;28;20044;-55
2022/01/15 03:08:10;;;;;;;4.70;1.33;;;;;;;0.48;77.13;101607.16;5064604;28;20043;-56
2022/01/15 03:10:37;;;;;;;5.20;1.40;;;;;;;0.47;77.25;101605.44;5060560;28;20414;-55
2022/01/15 03:13:10;;;;;;;5.78;1.40;;;;;;;0.46;77.16;101596.03;5058875;28;20095;-55
2022/01/15 03:15:38;;;;;;;4.63;1.10;;;;;;;0.45;77.23;101595.97;5056937;28;20076;-56
2022/01/15 03:18:05;;;;;;;11.65;1.42;;;;;;;0.44;77.74;101600.19;5059965;28;20052;-53
2022/01/15 03:20:32;;;;;;;5.88;1.27;;;;;;;0.44;77.48;101599.31;5057025;28;20405;-56
2022/01/15 03:23:00;;;;;;;5.80;2.17;;;;;;;0.45;77.52;101601.06;5064103;28;20488;-53
2022/01/15 03:25:29;;;;;;;5.07;1.08;;;;;;;0.45;77.31;101608.72;5062271;28;20401;-53
2022/01/15 03:27:56;;;;;;;9.20;0.90;;;;;;;0.44;77.59;101600.19;5059163;28;20059;-55
2022/01/15 03:30:23;;;;;;;7.25;1.30;;;;;;;0.44;77.69;101615.50;5062297;28;20048;-55
2022/01/15 03:32:51;;;;;;;10.98;2.45;;;;;;;0.45;77.52;101622.34;5065734;28;20056;-56
2022/01/15 03:35:19;;;;;;;7.30;1.52;;;;;;;0.44;77.50;101620.59;5056830;28;20052;-54
2022/01/15 03:37:46;;;;;;;8.93;1.45;;;;;;;0.44;77.83;101624.81;5062307;28;20135;-54
2022/01/15 03:40:16;;;;;;;6.32;1.15;;;;;;;0.43;77.63;101629.03;5061911;28;20041;-56
2022/01/15 03:42:45;;;;;;;4.20;1.10;;;;;;;0.42;77.53;101631.53;5064157;28;20052;-56
2022/01/15 03:45:14;;;;;;;7.65;1.20;;;;;;;0.42;77.98;101642.59;5062221;28;20049;-54
2022/01/15 03:47:41;;;;;;;7.80;1.23;;;;;;;0.41;77.71;101639.97;5063536;28;20049;-56
2022/01/15 03:50:09;;;;;;;6.22;1.35;;;;;;;0.40;77.56;101646.75;5060999;28;20055;-56
2022/01/15 03:52:36;;;;;;;8.10;1.20;;;;;;;0.39;77.67;101650.13;5057187;28;20697;-56
2022/01/15 03:55:06;;;;;;;7.28;1.02;;;;;;;0.39;77.56;101654.34;5064959;28;20052;-54
2022/01/15 03:57:33;;;;;;;7.38;1.55;;;;;;;0.38;77.46;101653.47;5063413;28;20375;-55
2022/01/15 04:00:02;;;;;;;5.60;1.25;;;;;;;0.36;77.74;101652.53;5058754;28;20452;-54
2022/01/15 04:02:30;;;;;;;6.78;1.52;;;;;;;0.35;77.64;101650.78;5056238;28;20048;-54
2022/01/15 04:04:57;;;;;;;7.68;1.30;;;;;;;0.35;77.81;101655.88;5057213;28;20045;-57
2022/01/15 04:07:24;;;;;;;7.72;1.70;;;;;;;0.34;77.88;101659.22;5054616;28;20052;-55
2022/01/15 04:09:51;;;;;;;7.60;1.60;;;;;;;0.32;77.82;101658.28;5061120;28;20049;-56
2022/01/15 04:12:18;;;;;;;6.55;1.50;;;;;;;0.31;77.84;101661.63;5061623;28;20478;-56
2022/01/15 04:14:46;;;;;;;10.27;2.30;;;;;;;0.30;78.02;101667.53;5062176;28;20048;-56
2022/01/15 04:17:14;;;;;;;6.13;1.80;;;;;;;0.27;78.03;101670.81;5065844;28;20052;-56
2022/01/15 04:19:41;;;;;;;6.40;1.27;;;;;;;0.28;77.93;101674.22;5058881;28;20040;-55
2022/01/15 04:22:09;;;;;;;8.73;1.70;;;;;;;0.26;78.12;101676.72;5055179;28;20044;-56
2022/01/15 04:24:36;;;;;;;5.75;1.25;;;;;;;0.25;78.26;101674.09;5061190;28;20052;-57
2022/01/15 04:27:03;;;;;;;5.15;1.67;;;;;;;0.23;77.94;101688.44;5057375;28;20066;-55
2022/01/15 04:29:33;;;;;;;7.47;1.20;;;;;;;0.21;78.19;101688.38;5055425;28;20053;-53
2022/01/15 04:32:00;;;;;;;5.03;1.20;;;;;;;0.22;78.20;101695.22;5061538;28;20044;-56
2022/01/15 04:34:30;;;;;;;4.35;1.30;;;;;;;0.22;78.17;101691.78;5064313;28;20056;-57
2022/01/15 04:37:04;;;;;;;12.55;1.75;;;;;;;0.22;78.37;101694.34;5062125;28;20413;-55
2022/01/15 04:39:31;;;;;;;4.60;1.58;;;;;;;0.20;78.19;101706.16;5064666;28;20055;-55
2022/01/15 04:41:58;;;;;;;7.22;1.20;;;;;;;0.19;78.24;101705.28;5059478;28;21649;-54
2022/01/15 04:44:26;;;;;;;12.50;2.17;;;;;;;0.17;78.25;101706.88;5056373;28;20052;-57
2022/01/15 04:46:53;;;;;;;8.88;1.50;;;;;;;0.13;78.66;101701.56;5055123;28;20048;-56
2022/01/15 04:49:21;;;;;;;8.38;1.92;;;;;;;0.10;78.73;101698.84;5055622;28;20482;-57
2022/01/15 04:51:49;;;;;;;4.70;1.20;;;;;;;0.08;79.07;101691.13;5059852;28;20044;-56
2022/01/15 04:54:16;;;;;;;7.88;1.80;;;;;;;0.04;78.84;101699.44;5060202;28;20049;-57
2022/01/15 04:56:44;;;;;;;3.55;1.10;;;;;;;0.06;79.32;101696.94;5055221;28;20052;-56
2022/01/15 04:59:11;;;;;;;7.03;1.77;;;;;;;0.05;79.14;101700.31;5054561;28;20516;-56
2022/01/15 05:01:38;;;;;;;5.47;1.30;;;;;;;0.06;79.09;101709.69;5054187;28;20048;-56
2022/01/15 05:04:06;;;;;;;7.30;1.50;;;;;;;0.05;79.24;101710.50;5054699;28;20060;-57
2022/01/15 05:06:33;;;;;;;8.38;1.48;;;;;;;0.04;79.26;101713.84;5055680;28;20049;-56
2022/01/15 05:09:05;;;;;;;4.75;1.48;;;;;;;0.02;79.17;101712.91;5059529;28;20139;-55
2022/01/15 05:11:44;;;;;;;8.02;1.50;;;;;;;0.01;79.16;101716.25;5060305;28;20409;-55
2022/01/15 05:14:12;;;;;;;5.22;1.60;;;;;;;-0.01;79.49;101704.25;5053546;28;20052;-57
2022/01/15 05:16:39;;;;;;;5.38;1.52;;;;;;;-0.02;79.36;101704.19;5055357;28;20048;-57
2022/01/15 05:19:07;;;;;;;9.02;1.50;;;;;;;-0.06;79.29;101698.06;5061363;28;20469;-56
2022/01/15 05:21:34;;;;;;;6.32;1.50;;;;;;;-0.09;79.78;101703.00;5061597;28;20055;-56
2022/01/15 05:24:02;;;;;;;5.88;1.67;;;;;;;-0.10;79.68;101706.34;5057701;28;20053;-55
2022/01/15 05:26:30;;;;;;;7.22;1.73;;;;;;;-0.11;79.71;101704.59;5058529;28;20059;-56
2022/01/15 05:28:57;;;;;;;10.05;1.23;;;;;;;-0.12;79.92;101712.19;5059332;28;20055;-56
2022/01/15 05:31:25;;;;;;;8.20;2.80;;;;;;;-0.11;79.91;101708.84;5062348;28;20752;-56
2022/01/15 05:33:52;;;;;;;7.88;1.50;;;;;;;-0.13;80.16;101711.31;5060157;28;20049;-57
2022/01/15 05:36:20;;;;;;;8.18;1.92;;;;;;;-0.14;79.94;101701.91;5060076;28;20064;-57
2022/01/15 05:38:47;;;;;;;8.65;1.40;;;;;;;-0.13;79.97;101712.97;5057284;28;20135;-56
2022/01/15 05:41:16;;;;;;;7.85;1.40;;;;;;;-0.14;79.98;101714.66;5058678;28;20363;-56
2022/01/15 05:43:43;;;;;;;8.55;1.60;;;;;;;-0.16;79.91;101715.38;5059579;28;20059;-56
2022/01/15 05:46:10;;;;;;;4.75;1.25;;;;;;;-0.17;80.30;101723.81;5068019;28;20068;-53
2022/01/15 05:48:38;;;;;;;11.63;1.55;;;;;;;-0.19;80.09;101716.09;5060762;28;20056;-57
2022/01/15 05:51:05;;;;;;;6.93;1.17;;;;;;;-0.18;80.26;101722.94;5059421;28;20059;-56
2022/01/15 05:53:32;;;;;;;8.30;1.95;;;;;;;-0.19;80.38;101721.19;5062738;28;20462;-56
2022/01/15 05:56:00;;;;;;;9.60;2.47;;;;;;;-0.20;80.30;101729.63;5060449;28;20055;-56
2022/01/15 05:58:28;;;;;;;12.73;2.67;;;;;;;-0.21;80.33;101732.97;5057465;28;20114;-57
2022/01/15 06:00:55;;;;;;;9.07;2.38;;;;;;;-0.22;80.51;101733.78;5068689;28;20051;-56
2022/01/15 06:03:23;;;;;;;14.75;2.95;;;;;;;-0.22;80.59;101741.44;5067017;28;20048;-56
2022/01/15 06:05:50;;;;;;;9.15;2.20;;;;;;;-0.20;80.71;101744.94;5056575;28;20421;-56
2022/01/15 06:08:17;;;;;;;8.75;2.60;;;;;;;-0.21;80.57;101753.38;5058016;28;20403;-53
2022/01/15 06:10:44;;;;;;;9.77;2.63;;;;;;;-0.23;80.99;101739.69;5057912;28;20298;-52
2022/01/15 06:13:11;;;;;;;12.85;3.00;;;;;;;-0.24;80.99;101754.88;5062037;28;20057;-55
2022/01/15 06:15:40;;;;;;;8.70;2.13;;;;;;;-0.27;80.91;101752.19;5060987;28;20052;-56
2022/01/15 06:18:07;;;;;;;7.63;1.88;;;;;;;-0.27;80.93;101747.09;5058586;28;20053;-55
2022/01/15 06:20:35;;;;;;;9.80;2.55;;;;;;;-0.28;81.01;101741.13;5057330;28;20053;-54
2022/01/15 06:23:02;;;;;;;8.15;1.85;;;;;;;-0.28;80.97;101733.47;5057601;28;20068;-57
2022/01/15 06:25:29;;;;;;;8.95;2.05;;;;;;;-0.28;81.16;101736.03;5058431;28;20059;-56
2022/01/15 06:27:56;;;;;;;8.88;2.47;;;;;;;-0.29;81.05;101739.38;5060858;28;20048;-56
2022/01/15 06:30:23;;;;;;;9.00;2.28;;;;;;;-0.29;80.84;101747.00;5062333;28;20048;-56
2022/01/15 06:32:52;;;;;;;10.75;2.58;;;;;;;-0.31;81.01;101758.78;5063507;28;20048;-55
2022/01/15 06:35:20;;;;;;;9.52;2.95;;;;;;;-0.31;80.95;101761.34;5067406;28;20063;-55
2022/01/15 06:37:48;;;;;;;14.90;2.80;;;;;;;-0.34;81.20;101761.19;5065089;28;20048;-56
2022/01/15 06:40:16;;;;;;;9.25;2.97;;;;;;;-0.33;81.11;101752.75;5068990;28;20063;-56
2022/01/15 06:42:44;;;;;;;13.27;4.15;;;;;;;-0.34;81.14;101756.09;5075563;28;20045;-57
2022/01/15 06:45:12;;;;;;;12.20;3.80;;;;;;;-0.36;81.12;101752.59;5067258;28;20075;-53
2022/01/15 06:47:39;;;;;;;20.73;3.97;;;;;;;-0.36;81.17;101747.50;5069730;28;20056;-56
2022/01/15 06:50:09;;;;;;;19.08;4.70;;;;;;;-0.38;81.00;101749.97;5057221;28;20513;-56
2022/01/15 06:52:38;;;;;;;23.00;4.50;;;;;;;-0.39;81.24;101748.22;5061419;28;20635;-53
2022/01/15 06:55:06;;;;;;;18.83;3.47;;;;;;;-0.39;81.06;101762.63;5057061;28;20063;-53
2022/01/15 06:57:34;;;;;;;17.77;4.65;;;;;;;-0.39;81.20;101762.63;5063315;28;20056;-56
2022/01/15 07:00:02;;;;;;;13.40;3.63;;;;;;;-0.39;80.93;101767.72;5065131;28;20060;-55
2022/01/15 07:02:30;;;;;;;25.80;6.45;;;;;;;-0.41;81.20;101774.41;5060804;28;20048;-53
2022/01/15 07:04:57;;;;;;;19.67;5.53;;;;;;;-0.40;81.20;101781.25;5057937;28;20055;-59
2022/01/15 07:07:26;;;;;;;19.60;5.72;;;;;;;-0.42;81.14;101773.53;5058339;28;20082;-51
2022/01/15 07:09:53;;;;;;;17.20;5.32;;;;;;;-0.42;81.03;101777.75;5061580;28;20497;-55
2022/01/15 07:12:20;;;;;;;11.88;4.85;;;;;;;-0.43;81.24;101776.88;5063813;28;20508;-55
2022/01/15 07:14:47;;;;;;;14.07;4.90;;;;;;;-0.44;81.68;101780.22;5062352;28;20064;-59
2022/01/15 07:17:15;;;;;;;13.35;3.10;;;;;;;-0.45;81.26;101772.50;5057410;28;20048;-59
2022/01/15 07:19:42;;;;;;;13.77;3.30;;;;;;;-0.44;81.66;101782.75;5056904;28;20057;-57
2022/01/15 07:22:10;;;;;;;7.47;2.97;;;;;;;-0.43;81.23;101786.19;5069583;28;20064;-52
2022/01/15 07:24:38;;;;;;;15.05;4.95;;;;;;;-0.43;81.41;101787.06;5071591;28;20386;-56
2022/01/15 07:27:06;;;;;;;15.82;4.03;;;;;;;-0.41;81.41;101789.69;5069865;28;20044;-54
2022/01/15 07:29:36;;;;;;;15.65;4.10;;;;;;;-0.41;81.54;101789.69;5066344;28;20060;-49
2022/01/15 07:32:04;;;;;;;10.52;2.70;;;;;;;-0.42;81.70;101793.03;5066273;28;20047;-53
2022/01/15 07:34:32;;;;;;;11.23;3.47;;;;;;;-0.40;81.67;101794.00;5069998;28;20048;-54
2022/01/15 07:36:59;;;;;;;17.35;4.15;;;;;;;-0.41;81.65;101794.78;5067830;28;20421;-55
2022/01/15 07:39:27;;;;;;;16.75;4.43;;;;;;;-0.39;81.65;101800.84;5065938;28;20048;-56
2022/01/15 07:41:56;;;;;;;19.27;3.53;;;;;;;-0.36;81.79;101803.53;5068074;28;20458;-55
2022/01/15 07:44:24;;;;;;;19.27;3.58;;;;;;;-0.35;81.58;101801.06;5063803;28;20052;-51
2022/01/15 07:46:51;;;;;;;9.88;3.22;;;;;;;-0.34;81.61;101805.38;5068093;28;20048;-58
2022/01/15 07:49:18;;;;;;;17.33;3.50;;;;;;;-0.30;81.79;101797.88;5065163;28;20055;-56
2022/01/15 07:51:46;;;;;;;11.93;3.28;;;;;;;-0.30;81.86;101798.75;5064813;28;20052;-53
2022/01/15 07:54:13;;;;;;;10.60;3.08;;;;;;;-0.28;81.79;101802.28;5068318;28;20127;-54
2022/01/15 07:56:40;;;;;;;13.00;3.35;;;;;;;-0.25;81.86;101806.66;5071888;28;20386;-51
2022/01/15 07:59:09;;;;;;;10.02;3.58;;;;;;;-0.24;81.72;101809.28;5065495;28;20052;-58
2022/01/15 08:01:36;;;;;;;15.52;3.92;;;;;;;-0.22;81.55;101810.22;5067006;28;20044;-58
2022/01/15 08:04:03;;;;;;;7.68;3.40;;;;;;;-0.19;81.66;101812.94;5071923;28;20134;-60
2022/01/15 08:06:31;;;;;;;9.80;3.65;;;;;;;-0.17;81.54;101811.34;5069041;28;20064;-60
2022/01/15 08:08:59;;;;;;;13.57;3.60;;;;;;;-0.14;81.46;101806.41;5057651;28;20415;-60
2022/01/15 08:11:26;;;;;;;10.02;3.53;;;;;;;-0.09;81.50;101814.28;5062718;28;20382;-60
2022/01/15 08:13:53;;;;;;;14.23;4.15;;;;;;;-0.06;81.40;101819.53;5065520;28;20572;-60
2022/01/15 08:16:22;;;;;;;13.32;4.10;;;;;;;-0.01;81.43;101825.75;5066826;28;20055;-51
2022/01/15 08:18:49;;;;;;;14.63;4.07;;;;;;;0.04;81.34;101816.69;5065678;28;20488;-53
2022/01/15 08:21:16;;;;;;;10.90;4.10;;;;;;;0.10;81.41;101813.59;5067106;28;20461;-55
2022/01/15 08:23:43;;;;;;;11.30;4.30;;;;;;;0.16;81.15;101813.88;5064671;28;20052;-53
2022/01/15 08:26:11;;;;;;;8.13;3.38;;;;;;;0.23;81.02;101808.28;5060479;28;20048;-55
2022/01/15 08:28:38;;;;;;;30.88;5.10;;;;;;;0.29;80.97;101812.03;5067318;28;20052;-52
2022/01/15 08:31:05;;;;;;;10.48;3.85;;;;;;;0.38;80.73;101818.38;5065858;28;20046;-56
2022/01/15 08:33:34;;;;;;;11.32;3.35;;;;;;;0.43;80.80;101822.91;5067557;28;20051;-56
2022/01/15 08:36:02;;;;;;;8.90;3.33;;;;;;;0.51;80.56;101826.72;5065551;28;20053;-57
2022/01/15 08:38:29;;;;;;;12.05;3.55;;;;;;;0.58;80.21;101828.81;5064198;28;20067;-56
2022/01/15 08:40:56;;;;;;;17.15;4.72;;;;;;;0.67;80.23;101832.59;5068572;28;20052;-54
2022/01/15 08:43:23;;;;;;;12.98;3.22;;;;;;;0.77;79.99;101839.91;5058713;28;20052;-57
2022/01/15 08:45:51;;;;;;;9.75;3.28;;;;;;;0.87;79.16;101847.19;5061945;28;20044;-57
2022/01/15 08:48:19;;;;;;;13.27;3.78;;;;;;;0.94;79.34;101844.13;5059360;28;20044;-58
2022/01/15 08:50:48;;;;;;;10.75;2.78;;;;;;;1.04;78.93;101846.34;5066589;28;20044;-56
2022/01/15 08:53:18;;;;;;;15.07;3.33;;;;;;;1.15;78.51;101859.63;5059428;28;20048;-60
2022/01/15 08:55:49;;;;;;;10.63;3.65;;;;;;;1.24;78.21;101853.28;5059701;28;20403;-56
2022/01/15 08:58:17;;;;;;;13.90;3.85;;;;;;;1.34;78.14;101851.16;5061682;28;20553;-52
2022/01/15 09:00:44;;;;;;;17.25;3.72;;;;;;;1.45;77.67;101849.97;5065086;28;20456;-57
2022/01/15 09:03:11;;;;;;;16.75;4.45;;;;;;;1.55;77.26;101841.91;5067659;28;20053;-54
2022/01/15 09:05:39;;;;;;;15.60;3.92;;;;;;;1.66;76.96;101845.84;5068879;28;20131;-52
2022/01/15 09:08:09;;;;;;;14.80;3.92;;;;;;;1.74;76.50;101852.19;5069403;28;20052;-55
2022/01/15 09:10:42;;;;;;;12.80;3.88;;;;;;;1.84;76.18;101858.59;5064992;28;20052;-59
2022/01/15 09:13:10;;;;;;;17.33;3.83;;;;;;;1.93;75.66;101860.66;5067270;28;20079;-57
2022/01/15 09:15:37;;;;;;;23.75;4.80;;;;;;;2.02;75.67;101866.19;5062891;28;20056;-52
2022/01/15 09:18:05;;;;;;;18.17;3.80;;;;;;;2.11;75.01;101867.50;5070036;28;20044;-57
2022/01/15 09:20:32;;;;;;;11.27;4.30;;;;;;;2.18;74.41;101858.41;5066904;28;20070;-58
2022/01/15 09:23:00;;;;;;;11.93;3.17;;;;;;;2.24;73.97;101858.66;5067849;28;20482;-53
2022/01/15 09:25:28;;;;;;;10.10;3.20;;;;;;;2.31;74.20;101870.91;5069964;28;20048;-56
2022/01/15 09:30:40;;;;;;;8.73;2.63;;;;;;;2.43;73.02;101862.88;5064380;28;20055;-56
2022/01/15 09:33:07;;;;;;;10.82;2.38;;;;;;;2.49;72.92;101866.56;5066735;28;20045;-57
2022/01/15 09:35:37;;;;;;;11.95;2.80;;;;;;;2.53;73.13;101873.56;5070226;28;20056;-55
2022/01/15 09:38:04;;;;;;;13.93;3.22;;;;;;;2.60;72.91;101884.97;5068828;28;20147;-54
2022/01/15 09:40:34;;;;;;;11.20;3.53;;;;;;;2.69;73.03;101894.72;5063653;28;20078;-55
2022/01/15 09:43:01;;;;;;;34.33;5.35;;;;;;;2.76;72.03;101886.47;5068401;28;20133;-58
2022/01/15 09:45:29;;;;;;;9.80;3.25;;;;;;;2.83;71.93;101885.91;5072561;28;20063;-54
2022/01/15 09:47:59;;;;;;;14.05;3.60;;;;;;;2.89;72.08;101887.84;5069632;28;20131;-54
2022/01/15 09:50:29;;;;;;;13.32;3.53;;;;;;;2.92;71.07;101883.72;5072921;28;20064;-50
2022/01/15 09:52:57;;;;;;;19.92;3.65;;;;;;;2.98;71.86;101878.84;5072590;28;20060;-56
2022/01/15 09:55:25;;;;;;;15.93;3.85;;;;;;;3.05;71.30;101880.84;5073491;28;20526;-52
2022/01/15 09:57:55;;;;;;;19.50;4.25;;;;;;;3.10;71.31;101879.34;5070662;28;20132;-57
2022/01/15 10:00:24;;;;;;;33.55;4.35;;;;;;;3.16;71.17;101879.63;5061375;28;20055;-54
2022/01/15 10:02:55;;;;;;;13.18;3.70;;;;;;;3.19;70.11;101883.13;5074933;28;20044;-58
2022/01/15 10:05:23;;;;;;;20.65;3.28;;;;;;;3.23;71.08;101891.00;5069857;28;20079;-55
2022/01/15 10:07:58;;;;;;;28.60;5.47;;;;;;;3.34;70.39;101881.16;5070822;28;20048;-58
2022/01/15 10:10:26;;;;;;;11.85;3.38;;;;;;;3.42;69.66;101887.44;5069258;28;20071;-58
2022/01/15 10:12:56;;;;;;;11.35;3.35;;;;;;;3.50;69.87;101896.31;5072610;28;20048;-51
2022/01/15 10:15:24;;;;;;;8.25;3.83;;;;;;;3.58;69.26;101888.91;5068906;28;20513;-50
2022/01/15 10:17:51;;;;;;;9.75;3.78;;;;;;;3.65;69.54;101893.50;5070505;28;20412;-55
2022/01/15 10:20:22;;;;;;;13.18;3.28;;;;;;;3.67;68.81;101874.78;5072290;28;20064;-54
2022/01/15 10:22:51;;;;;;;13.40;3.13;;;;;;;3.80;68.79;101887.25;5071632;28;20048;-52
2022/01/15 10:25:22;;;;;;;12.38;3.35;;;;;;;3.92;67.98;101880.81;5069951;28;20040;-51
2022/01/15 10:27:52;;;;;;;13.48;4.00;;;;;;;3.98;68.24;101886.16;5067322;28;20448;-49
2022/01/15 10:30:23;;;;;;;6.25;2.58;;;;;;;4.04;66.96;101883.81;5066103;28;20077;-53
2022/01/15 10:32:56;;;;;;;12.40;3.22;;;;;;;4.10;67.11;101891.72;5071264;28;20051;-53
2022/01/15 10:35:25;;;;;;;12.55;3.03;;;;;;;4.13;67.02;101886.72;5067174;28;20393;-55
2022/01/15 10:37:54;;;;;;;23.92;3.25;;;;;;;4.19;67.44;101875.81;5069665;28;20054;-57
2022/01/15 10:40:23;;;;;;;9.00;2.78;;;;;;;4.14;66.05;101867.94;5072108;28;20080;-58
2022/01/15 10:42:58;;;;;;;10.38;3.00;;;;;;;4.13;66.38;101881.56;5069617;28;20052;-59
2022/01/15 10:45:29;;;;;;;6.68;2.47;;;;;;;4.14;66.46;101888.47;5066579;28;20048;-57
2022/01/15 10:47:58;;;;;;;7.72;3.05;;;;;;;4.18;66.70;101889.47;5072816;28;20044;-58
2022/01/15 10:50:27;;;;;;;10.10;3.58;;;;;;;4.24;66.50;101895.69;5068943;28;20072;-58
2022/01/15 10:52:56;;;;;;;15.65;4.68;;;;;;;4.26;66.41;101891.50;5066701;28;20048;-57
2022/01/15 10:55:28;;;;;;;20.33;4.68;;;;;;;4.28;65.87;101883.84;5066366;28;20107;-57
2022/01/15 10:57:58;;;;;;;14.45;3.63;;;;;;;4.26;66.18;101898.31;5067182;28;20045;-58
2022/01/15 11:00:28;;;;;;;15.98;4.22;;;;;;;4.30;65.84;101895.91;5065531;28;20505;-57
2022/01/15 11:02:59;;;;;;;6.78;3.17;;;;;;;4.37;65.94;101887.59;5063657;28;20040;-53
2022/01/15 11:05:31;;;;;;;17.50;3.40;;;;;;;4.47;66.21;101887.94;5066576;28;20055;-55
2022/01/15 11:08:13;;;;;;;11.02;3.28;;;;;;;4.60;65.19;101879.81;5068189;28;20052;-55
2022/01/15 11:10:52;;;;;;;12.35;2.92;;;;;;;4.67;64.71;101877.50;5064830;28;20084;-58
2022/01/15 11:13:22;;;;;;;9.05;2.70;;;;;;;4.73;64.58;101876.88;5064178;28;20046;-57
2022/01/15 11:15:54;;;;;;;12.77;3.72;;;;;;;4.78;64.48;101872.75;5067608;28;20049;-59
2022/01/15 11:18:23;;;;;;;10.98;3.10;;;;;;;4.78;64.21;101889.88;5066288;28;20045;-58
2022/01/15 11:20:52;;;;;;;13.65;3.00;;;;;;;4.77;63.46;101900.97;5065689;28;20059;-59
2022/01/15 11:23:21;;;;;;;12.60;2.60;;;;;;;4.77;63.31;101906.09;5064717;28;20052;-59
2022/01/15 11:25:51;;;;;;;6.28;2.63;;;;;;;4.81;63.39;101906.25;5064147;28;20061;-50
2022/01/15 11:28:20;;;;;;;12.10;3.10;;;;;;;4.83;63.31;101904.59;5074297;28;20043;-47
2022/01/15 11:30:53;;;;;;;17.65;3.42;;;;;;;4.86;63.42;101906.41;5064766;28;20763;-48
2022/01/15 11:33:22;;;;;;;7.38;2.60;;;;;;;4.90;63.99;101906.56;5063829;28;20052;-58
2022/01/15 11:35:51;;;;;;;13.20;2.50;;;;;;;4.94;63.64;101902.38;5065506;28;20056;-57
2022/01/15 11:38:41;;;;;;;9.80;2.00;;;;;;;5.00;63.33;101897.44;5065114;28;20072;-59
2022/01/15 11:41:37;;;;;;;10.70;2.67;;;;;;;4.99;61.76;101894.00;5061869;28;20056;-58
2022/01/15 11:44:05;;;;;;;7.95;2.08;;;;;;;4.93;62.56;101898.94;5061419;28;20076;-59
2022/01/15 11:46:40;;;;;;;7.43;2.25;;;;;;;4.94;62.66;101910.97;5056748;28;20044;-56
2022/01/15 11:49:26;;;;;;;8.25;2.33;;;;;;;4.95;62.77;101912.72;5053872;28;20056;-52
2022/01/15 11:51:54;;;;;;;10.57;2.30;;;;;;;4.98;62.87;101910.25;5057421;28;20040;-56